Knight Air

Knight Air knights of the virtual airways



 METAR AND TAF INFORMATION
METAR FOR EGJJ
ADDS - METARS form results

(1208 UTC 23 April 2019)
Data provider http://aviationweather.gov/metar/data/
 
METAR text: EGJJ 231150Z 14013KT 9999 FEW045 16/10 Q0995
Conditions at: EGJJ (JERSEY AIRPORT , GB) observed 1150 UTC 23 April 2019
Temperature: 16.0°C (61°F)
Dewpoint: 10.0°C (50°F) [RH = 68%]
Pressure (altimeter): 29.38 inches Hg (995.0 mb)
Winds: from the SE (140 degrees) at 15 MPH (13 knots; 6.7 m/s)
Visibility: 6 or more miles (10+ km)
Ceiling: at least 12,000 feet AGL
Clouds: few clouds at 4500 feet AGL
Weather: no significant weather observed at this time

METAR text: EGJJ 231120Z 13012KT 9999 -RA FEW045 16/10 Q0995
Conditions at: EGJJ (JERSEY AIRPORT , GB) observed 1120 UTC 23 April 2019
Temperature: 16.0°C (61°F)
Dewpoint: 10.0°C (50°F) [RH = 68%]
Pressure (altimeter): 29.38 inches Hg (995.0 mb)
Winds: from the SE (130 degrees) at 14 MPH (12 knots; 6.2 m/s)
Visibility: 6 or more miles (10+ km)
Ceiling: at least 12,000 feet AGL
Clouds: few clouds at 4500 feet AGL
Weather: -RA  (light rain)

Forecast for: EGJJ (JERSEY AIRPORT , GB)
Text: TAF EGJJ 231058Z 2312/2321 13010KT CAVOK
Forecast period: 1200 to 2100 UTC 23 April 2019
Forecast type: FROM: standard forecast or significant change
Winds: from the SE (130 degrees) at 12 MPH (10 knots; 5.1 m/s)
Visibility: 6 or more miles 10+ km)
Ceiling: unknown
Clouds: missing
Weather: NSW  (no significant weather)
Text: TEMPO 2315/2321 8000 -SHRA SCT040CB
Forecast period: 1500 to 2100 UTC 23 April 2019
Forecast type: TEMPORARY: The following changes expected for less than half the time period
Visibility: 5 miles (8 km)
Ceiling: at least 12,000 feet AGL
Clouds: scattered clouds at 4000 feet AGL
Weather: -SHRA  (light rain showers)
Text: PROB30
Forecast period: 1800 to 2000 UTC 23 April 2019
Forecast type: TEMPORARY: The following changes expected for less than half the time period
Winds: from the SE (130 degrees) at 17 MPH (15 knots; 7.7 m/s)
gusting to 29 MPH (25 knots; 12.9 m/s)
Visibility: 3 miles (5 km)
Ceiling: unknown
Clouds: missing
Weather: SHRA  (rain showers)

 AIRPORT MAP

 RUNWAY INFORMATION
Runway 09 Runway length 5597 ft Runway width 151 ft
Runway elevation 270 ft Runway displaced threshold 200 ft Runway heading 83
Runway 27 Runway length 5597 ft Runway width 151 ft
Runway elevation 271 ft Runway displaced threshold 299 ft Runway heading 263

 AIRPORT FREQUENCIES
Type APP Name APP Frequency 120.3 MHZ
Type ATIS Name INFO Frequency 112.2 MHZ
Type GND Name GND Frequency 121.9 MHZ
Type RDR Name RDR Frequency 118.55 MHZ
Type TWR Name TWR Frequency 119.45 MHZ

 AIRPORT NEAR NAVIGATION AIDS
Type VOR-DME Name Jersey Frequency 112200 KHZ